sensor_id;sensor_type;location;lat;lon;timestamp;P1;durP1;ratioP1;P2;durP2;ratioP2
36321;SDS011;23564;48.290;11.460;2022-08-27T00:02:05;11.25;;;6.07;;
36321;SDS011;23564;48.290;11.460;2022-08-27T00:04:32;11.43;;;5.72;;
36321;SDS011;23564;48.290;11.460;2022-08-27T00:06:58;13.15;;;5.70;;
36321;SDS011;23564;48.290;11.460;2022-08-27T00:09:24;11.35;;;5.45;;
36321;SDS011;23564;48.290;11.460;2022-08-27T00:11:51;11.85;;;5.90;;
36321;SDS011;23564;48.290;11.460;2022-08-27T00:14:16;9.20;;;5.53;;
36321;SDS011;23564;48.290;11.460;2022-08-27T00:16:42;9.57;;;5.63;;
36321;SDS011;23564;48.290;11.460;2022-08-27T00:19:08;9.50;;;5.90;;
36321;SDS011;23564;48.290;11.460;2022-08-27T00:21:33;10.30;;;6.32;;
36321;SDS011;23564;48.290;11.460;2022-08-27T00:23:59;9.20;;;5.65;;
36321;SDS011;23564;48.290;11.460;2022-08-27T00:26:25;11.93;;;6.50;;
36321;SDS011;23564;48.290;11.460;2022-08-27T00:28:50;11.90;;;6.15;;
36321;SDS011;23564;48.290;11.460;2022-08-27T00:31:16;10.98;;;6.20;;
36321;SDS011;23564;48.290;11.460;2022-08-27T00:33:42;12.55;;;6.90;;
36321;SDS011;23564;48.290;11.460;2022-08-27T00:36:08;11.00;;;7.18;;
36321;SDS011;23564;48.290;11.460;2022-08-27T00:38:35;14.90;;;7.72;;
36321;SDS011;23564;48.290;11.460;2022-08-27T00:41:02;13.82;;;7.00;;
36321;SDS011;23564;48.290;11.460;2022-08-27T00:43:31;14.27;;;7.40;;
36321;SDS011;23564;48.290;11.460;2022-08-27T00:46:10;12.90;;;7.40;;
36321;SDS011;23564;48.290;11.460;2022-08-27T00:48:43;12.20;;;7.32;;
36321;SDS011;23564;48.290;11.460;2022-08-27T00:51:09;9.73;;;6.80;;
36321;SDS011;23564;48.290;11.460;2022-08-27T00:53:35;13.82;;;7.35;;
36321;SDS011;23564;48.290;11.460;2022-08-27T00:56:03;13.60;;;6.88;;
36321;SDS011;23564;48.290;11.460;2022-08-27T00:58:36;12.95;;;7.68;;
36321;SDS011;23564;48.290;11.460;2022-08-27T01:01:07;12.48;;;8.27;;
36321;SDS011;23564;48.290;11.460;2022-08-27T01:03:34;16.38;;;8.13;;
36321;SDS011;23564;48.290;11.460;2022-08-27T01:06:00;13.40;;;8.43;;
36321;SDS011;23564;48.290;11.460;2022-08-27T01:08:30;17.75;;;8.75;;
36321;SDS011;23564;48.290;11.460;2022-08-27T01:10:59;17.17;;;9.13;;
36321;SDS011;23564;48.290;11.460;2022-08-27T01:13:26;16.60;;;9.27;;
36321;SDS011;23564;48.290;11.460;2022-08-27T01:15:55;13.73;;;8.93;;
36321;SDS011;23564;48.290;11.460;2022-08-27T01:18:24;21.70;;;9.38;;
36321;SDS011;23564;48.290;11.460;2022-08-27T01:20:55;16.45;;;9.07;;
36321;SDS011;23564;48.290;11.460;2022-08-27T01:23:42;17.15;;;9.50;;
36321;SDS011;23564;48.290;11.460;2022-08-27T01:26:20;15.90;;;9.65;;
36321;SDS011;23564;48.290;11.460;2022-08-27T01:28:47;21.75;;;9.90;;
36321;SDS011;23564;48.290;11.460;2022-08-27T01:31:13;15.25;;;9.27;;
36321;SDS011;23564;48.290;11.460;2022-08-27T01:33:39;14.40;;;8.95;;
36321;SDS011;23564;48.290;11.460;2022-08-27T01:36:16;13.27;;;7.90;;
36321;SDS011;23564;48.290;11.460;2022-08-27T01:38:42;13.65;;;8.88;;
36321;SDS011;23564;48.290;11.460;2022-08-27T01:41:08;15.20;;;9.32;;
36321;SDS011;23564;48.290;11.460;2022-08-27T01:43:33;16.52;;;9.15;;
36321;SDS011;23564;48.290;11.460;2022-08-27T01:45:59;17.63;;;9.93;;
36321;SDS011;23564;48.290;11.460;2022-08-27T01:48:24;16.73;;;8.65;;
36321;SDS011;23564;48.290;11.460;2022-08-27T01:50:50;17.42;;;9.18;;
36321;SDS011;23564;48.290;11.460;2022-08-27T01:53:18;15.93;;;9.70;;
36321;SDS011;23564;48.290;11.460;2022-08-27T01:55:46;19.10;;;9.63;;
36321;SDS011;23564;48.290;11.460;2022-08-27T01:58:13;15.65;;;9.15;;
36321;SDS011;23564;48.290;11.460;2022-08-27T02:00:41;18.30;;;9.63;;
36321;SDS011;23564;48.290;11.460;2022-08-27T02:03:09;13.75;;;9.02;;
36321;SDS011;23564;48.290;11.460;2022-08-27T02:05:36;20.70;;;9.32;;
36321;SDS011;23564;48.290;11.460;2022-08-27T02:08:03;13.30;;;9.30;;
36321;SDS011;23564;48.290;11.460;2022-08-27T02:10:31;14.90;;;9.07;;
36321;SDS011;23564;48.290;11.460;2022-08-27T02:12:59;18.70;;;10.82;;
36321;SDS011;23564;48.290;11.460;2022-08-27T02:15:25;19.52;;;10.05;;
36321;SDS011;23564;48.290;11.460;2022-08-27T02:17:51;15.15;;;9.65;;
36321;SDS011;23564;48.290;11.460;2022-08-27T02:20:17;17.60;;;10.13;;
36321;SDS011;23564;48.290;11.460;2022-08-27T02:22:44;18.27;;;9.05;;
36321;SDS011;23564;48.290;11.460;2022-08-27T02:25:11;17.45;;;9.35;;
36321;SDS011;23564;48.290;11.460;2022-08-27T02:27:38;15.07;;;10.02;;
36321;SDS011;23564;48.290;11.460;2022-08-27T02:30:09;15.88;;;9.48;;
36321;SDS011;23564;48.290;11.460;2022-08-27T02:32:36;15.00;;;8.93;;
36321;SDS011;23564;48.290;11.460;2022-08-27T02:35:02;17.65;;;9.23;;
36321;SDS011;23564;48.290;11.460;2022-08-27T02:37:29;16.48;;;10.07;;
36321;SDS011;23564;48.290;11.460;2022-08-27T02:39:55;15.38;;;9.05;;
36321;SDS011;23564;48.290;11.460;2022-08-27T02:42:21;17.75;;;8.35;;
36321;SDS011;23564;48.290;11.460;2022-08-27T02:44:47;16.23;;;10.25;;
36321;SDS011;23564;48.290;11.460;2022-08-27T02:47:13;15.70;;;9.73;;
36321;SDS011;23564;48.290;11.460;2022-08-27T02:49:40;14.50;;;8.90;;
36321;SDS011;23564;48.290;11.460;2022-08-27T02:52:06;19.65;;;9.65;;
36321;SDS011;23564;48.290;11.460;2022-08-27T02:54:32;17.50;;;9.75;;
36321;SDS011;23564;48.290;11.460;2022-08-27T02:56:58;15.10;;;10.27;;
36321;SDS011;23564;48.290;11.460;2022-08-27T02:59:24;26.15;;;10.65;;
36321;SDS011;23564;48.290;11.460;2022-08-27T03:01:50;20.58;;;10.07;;
36321;SDS011;23564;48.290;11.460;2022-08-27T03:04:16;16.95;;;10.57;;
36321;SDS011;23564;48.290;11.460;2022-08-27T03:06:43;20.98;;;10.35;;
36321;SDS011;23564;48.290;11.460;2022-08-27T03:09:10;17.05;;;10.00;;
36321;SDS011;23564;48.290;11.460;2022-08-27T03:11:35;21.02;;;9.88;;
36321;SDS011;23564;48.290;11.460;2022-08-27T03:14:01;17.08;;;9.82;;
36321;SDS011;23564;48.290;11.460;2022-08-27T03:16:27;17.00;;;9.88;;
36321;SDS011;23564;48.290;11.460;2022-08-27T03:18:53;18.27;;;10.20;;
36321;SDS011;23564;48.290;11.460;2022-08-27T03:21:21;15.25;;;9.50;;
36321;SDS011;23564;48.290;11.460;2022-08-27T03:23:49;16.58;;;10.27;;
36321;SDS011;23564;48.290;11.460;2022-08-27T03:26:15;14.32;;;9.77;;
36321;SDS011;23564;48.290;11.460;2022-08-27T03:28:41;17.73;;;9.88;;
36321;SDS011;23564;48.290;11.460;2022-08-27T03:31:08;20.50;;;9.52;;
36321;SDS011;23564;48.290;11.460;2022-08-27T03:33:46;22.38;;;10.60;;
36321;SDS011;23564;48.290;11.460;2022-08-27T03:36:12;15.60;;;9.15;;
36321;SDS011;23564;48.290;11.460;2022-08-27T03:38:37;19.95;;;9.45;;
36321;SDS011;23564;48.290;11.460;2022-08-27T03:41:03;17.83;;;9.90;;
36321;SDS011;23564;48.290;11.460;2022-08-27T03:43:29;21.00;;;10.65;;
36321;SDS011;23564;48.290;11.460;2022-08-27T03:45:55;17.70;;;10.15;;
36321;SDS011;23564;48.290;11.460;2022-08-27T03:48:21;23.58;;;10.23;;
36321;SDS011;23564;48.290;11.460;2022-08-27T03:50:48;20.95;;;9.80;;
36321;SDS011;23564;48.290;11.460;2022-08-27T03:53:14;20.15;;;11.05;;
36321;SDS011;23564;48.290;11.460;2022-08-27T03:55:41;16.90;;;9.88;;
36321;SDS011;23564;48.290;11.460;2022-08-27T03:58:08;15.13;;;9.90;;
36321;SDS011;23564;48.290;11.460;2022-08-27T04:00:38;20.45;;;10.43;;
36321;SDS011;23564;48.290;11.460;2022-08-27T04:03:05;15.05;;;9.63;;
36321;SDS011;23564;48.290;11.460;2022-08-27T04:05:31;18.80;;;8.95;;
36321;SDS011;23564;48.290;11.460;2022-08-27T04:07:58;18.33;;;9.43;;
36321;SDS011;23564;48.290;11.460;2022-08-27T04:10:24;16.05;;;10.10;;
36321;SDS011;23564;48.290;11.460;2022-08-27T04:12:51;15.27;;;10.32;;
36321;SDS011;23564;48.290;11.460;2022-08-27T04:15:17;16.70;;;9.95;;
36321;SDS011;23564;48.290;11.460;2022-08-27T04:17:42;14.00;;;9.98;;
36321;SDS011;23564;48.290;11.460;2022-08-27T04:20:08;17.73;;;10.63;;
36321;SDS011;23564;48.290;11.460;2022-08-27T04:22:34;16.75;;;10.45;;
36321;SDS011;23564;48.290;11.460;2022-08-27T04:25:00;14.43;;;9.93;;
36321;SDS011;23564;48.290;11.460;2022-08-27T04:27:26;15.77;;;8.93;;
36321;SDS011;23564;48.290;11.460;2022-08-27T04:29:53;23.83;;;9.45;;
36321;SDS011;23564;48.290;11.460;2022-08-27T04:32:23;11.88;;;7.25;;
36321;SDS011;23564;48.290;11.460;2022-08-27T04:34:56;14.70;;;7.18;;
36321;SDS011;23564;48.290;11.460;2022-08-27T04:37:23;12.93;;;7.07;;
36321;SDS011;23564;48.290;11.460;2022-08-27T04:39:50;14.75;;;7.97;;
36321;SDS011;23564;48.290;11.460;2022-08-27T04:42:17;12.75;;;7.00;;
36321;SDS011;23564;48.290;11.460;2022-08-27T04:44:44;13.75;;;7.20;;
36321;SDS011;23564;48.290;11.460;2022-08-27T04:47:10;9.98;;;7.15;;
36321;SDS011;23564;48.290;11.460;2022-08-27T04:49:37;10.90;;;6.35;;
36321;SDS011;23564;48.290;11.460;2022-08-27T04:52:03;10.95;;;6.28;;
36321;SDS011;23564;48.290;11.460;2022-08-27T04:54:29;10.35;;;5.97;;
36321;SDS011;23564;48.290;11.460;2022-08-27T04:56:54;9.65;;;6.07;;
36321;SDS011;23564;48.290;11.460;2022-08-27T04:59:20;12.40;;;6.60;;
36321;SDS011;23564;48.290;11.460;2022-08-27T05:01:46;11.68;;;6.40;;
36321;SDS011;23564;48.290;11.460;2022-08-27T05:04:13;8.00;;;6.13;;
36321;SDS011;23564;48.290;11.460;2022-08-27T05:06:40;8.85;;;6.03;;
36321;SDS011;23564;48.290;11.460;2022-08-27T05:09:08;8.82;;;5.70;;
36321;SDS011;23564;48.290;11.460;2022-08-27T05:11:34;8.32;;;5.93;;
36321;SDS011;23564;48.290;11.460;2022-08-27T05:14:03;13.40;;;5.90;;
36321;SDS011;23564;48.290;11.460;2022-08-27T05:16:31;12.97;;;5.73;;
36321;SDS011;23564;48.290;11.460;2022-08-27T05:18:57;7.70;;;5.68;;
36321;SDS011;23564;48.290;11.460;2022-08-27T05:21:24;8.32;;;5.90;;
36321;SDS011;23564;48.290;11.460;2022-08-27T05:23:53;11.23;;;6.05;;
36321;SDS011;23564;48.290;11.460;2022-08-27T05:26:20;8.05;;;5.75;;
36321;SDS011;23564;48.290;11.460;2022-08-27T05:28:46;10.25;;;5.93;;
36321;SDS011;23564;48.290;11.460;2022-08-27T05:31:13;9.82;;;5.68;;
36321;SDS011;23564;48.290;11.460;2022-08-27T05:33:39;9.95;;;5.35;;
36321;SDS011;23564;48.290;11.460;2022-08-27T05:36:06;7.63;;;5.18;;
36321;SDS011;23564;48.290;11.460;2022-08-27T05:38:38;10.57;;;5.97;;
36321;SDS011;23564;48.290;11.460;2022-08-27T05:41:08;9.07;;;5.38;;
36321;SDS011;23564;48.290;11.460;2022-08-27T05:43:38;10.38;;;5.80;;
36321;SDS011;23564;48.290;11.460;2022-08-27T05:46:06;7.28;;;5.63;;
36321;SDS011;23564;48.290;11.460;2022-08-27T05:48:36;14.95;;;5.93;;
36321;SDS011;23564;48.290;11.460;2022-08-27T05:51:36;11.68;;;6.07;;
36321;SDS011;23564;48.290;11.460;2022-08-27T05:53:58;8.63;;;5.85;;
36321;SDS011;23564;48.290;11.460;2022-08-27T05:56:27;7.10;;;5.40;;
36321;SDS011;23564;48.290;11.460;2022-08-27T05:58:54;10.60;;;5.40;;
36321;SDS011;23564;48.290;11.460;2022-08-27T06:01:39;9.60;;;5.85;;
36321;SDS011;23564;48.290;11.460;2022-08-27T06:04:10;9.63;;;5.57;;
36321;SDS011;23564;48.290;11.460;2022-08-27T06:06:37;7.65;;;5.93;;
36321;SDS011;23564;48.290;11.460;2022-08-27T06:09:04;8.32;;;5.50;;
36321;SDS011;23564;48.290;11.460;2022-08-27T06:11:31;8.68;;;5.70;;
36321;SDS011;23564;48.290;11.460;2022-08-27T06:13:57;9.30;;;5.68;;
36321;SDS011;23564;48.290;11.460;2022-08-27T06:16:22;9.48;;;5.18;;
36321;SDS011;23564;48.290;11.460;2022-08-27T06:18:48;7.50;;;5.68;;
36321;SDS011;23564;48.290;11.460;2022-08-27T06:21:14;9.43;;;5.72;;
36321;SDS011;23564;48.290;11.460;2022-08-27T06:23:43;10.85;;;5.80;;
36321;SDS011;23564;48.290;11.460;2022-08-27T06:26:10;9.85;;;6.38;;
36321;SDS011;23564;48.290;11.460;2022-08-27T06:28:37;8.15;;;5.15;;
36321;SDS011;23564;48.290;11.460;2022-08-27T06:31:07;5.70;;;4.85;;
36321;SDS011;23564;48.290;11.460;2022-08-27T06:33:35;8.18;;;5.30;;
36321;SDS011;23564;48.290;11.460;2022-08-27T06:36:02;6.88;;;5.03;;
36321;SDS011;23564;48.290;11.460;2022-08-27T06:38:29;8.02;;;6.03;;
36321;SDS011;23564;48.290;11.460;2022-08-27T06:40:55;13.98;;;6.93;;
36321;SDS011;23564;48.290;11.460;2022-08-27T06:43:22;19.90;;;6.22;;
36321;SDS011;23564;48.290;11.460;2022-08-27T06:45:48;7.53;;;5.35;;
36321;SDS011;23564;48.290;11.460;2022-08-27T06:48:14;8.00;;;5.55;;
36321;SDS011;23564;48.290;11.460;2022-08-27T06:50:40;9.32;;;5.85;;
36321;SDS011;23564;48.290;11.460;2022-08-27T06:53:06;9.48;;;6.15;;
36321;SDS011;23564;48.290;11.460;2022-08-27T06:55:39;8.25;;;5.93;;
36321;SDS011;23564;48.290;11.460;2022-08-27T06:58:08;9.18;;;5.65;;
36321;SDS011;23564;48.290;11.460;2022-08-27T07:00:34;8.90;;;5.88;;
36321;SDS011;23564;48.290;11.460;2022-08-27T07:03:00;8.35;;;5.72;;
36321;SDS011;23564;48.290;11.460;2022-08-27T07:05:28;12.43;;;6.65;;
36321;SDS011;23564;48.290;11.460;2022-08-27T07:07:53;11.30;;;7.30;;
36321;SDS011;23564;48.290;11.460;2022-08-27T07:10:19;9.77;;;7.43;;
36321;SDS011;23564;48.290;11.460;2022-08-27T07:12:44;14.18;;;8.10;;
36321;SDS011;23564;48.290;11.460;2022-08-27T07:15:10;19.95;;;8.93;;
36321;SDS011;23564;48.290;11.460;2022-08-27T07:17:36;11.43;;;8.05;;
36321;SDS011;23564;48.290;11.460;2022-08-27T07:20:02;12.57;;;8.80;;
36321;SDS011;23564;48.290;11.460;2022-08-27T07:22:28;15.20;;;8.68;;
36321;SDS011;23564;48.290;11.460;2022-08-27T07:24:54;15.00;;;9.05;;
36321;SDS011;23564;48.290;11.460;2022-08-27T07:27:20;11.93;;;9.32;;
36321;SDS011;23564;48.290;11.460;2022-08-27T07:29:46;11.63;;;8.63;;
36321;SDS011;23564;48.290;11.460;2022-08-27T07:32:11;13.90;;;8.98;;
36321;SDS011;23564;48.290;11.460;2022-08-27T07:34:37;14.43;;;8.65;;
36321;SDS011;23564;48.290;11.460;2022-08-27T07:37:03;14.65;;;9.93;;
36321;SDS011;23564;48.290;11.460;2022-08-27T07:39:28;16.02;;;10.32;;
36321;SDS011;23564;48.290;11.460;2022-08-27T07:41:55;14.60;;;9.25;;
36321;SDS011;23564;48.290;11.460;2022-08-27T07:44:39;11.73;;;8.43;;
36321;SDS011;23564;48.290;11.460;2022-08-27T07:47:05;14.23;;;8.68;;
36321;SDS011;23564;48.290;11.460;2022-08-27T07:49:31;15.40;;;8.38;;
36321;SDS011;23564;48.290;11.460;2022-08-27T07:51:59;13.68;;;7.85;;
36321;SDS011;23564;48.290;11.460;2022-08-27T07:54:25;11.25;;;7.97;;
36321;SDS011;23564;48.290;11.460;2022-08-27T07:56:51;19.83;;;8.38;;
36321;SDS011;23564;48.290;11.460;2022-08-27T07:59:18;12.85;;;6.97;;
36321;SDS011;23564;48.290;11.460;2022-08-27T08:01:43;8.15;;;6.03;;
36321;SDS011;23564;48.290;11.460;2022-08-27T08:04:09;10.43;;;7.05;;
36321;SDS011;23564;48.290;11.460;2022-08-27T08:06:36;11.27;;;7.50;;
36321;SDS011;23564;48.290;11.460;2022-08-27T08:09:03;10.20;;;6.78;;
36321;SDS011;23564;48.290;11.460;2022-08-27T08:11:31;15.25;;;7.53;;
36321;SDS011;23564;48.290;11.460;2022-08-27T08:13:58;10.40;;;6.95;;
36321;SDS011;23564;48.290;11.460;2022-08-27T08:16:24;10.65;;;6.97;;
36321;SDS011;23564;48.290;11.460;2022-08-27T08:18:50;12.57;;;6.82;;
36321;SDS011;23564;48.290;11.460;2022-08-27T08:21:15;11.63;;;6.63;;
36321;SDS011;23564;48.290;11.460;2022-08-27T08:23:41;11.93;;;6.82;;
36321;SDS011;23564;48.290;11.460;2022-08-27T08:26:08;8.85;;;6.40;;
36321;SDS011;23564;48.290;11.460;2022-08-27T08:28:36;7.82;;;6.22;;
36321;SDS011;23564;48.290;11.460;2022-08-27T08:31:02;9.32;;;6.13;;
36321;SDS011;23564;48.290;11.460;2022-08-27T08:33:28;8.98;;;6.65;;
36321;SDS011;23564;48.290;11.460;2022-08-27T08:36:00;8.05;;;5.50;;
36321;SDS011;23564;48.290;11.460;2022-08-27T08:38:30;10.02;;;5.95;;
36321;SDS011;23564;48.290;11.460;2022-08-27T08:40:55;9.98;;;5.95;;
36321;SDS011;23564;48.290;11.460;2022-08-27T08:43:29;10.50;;;6.10;;
36321;SDS011;23564;48.290;11.460;2022-08-27T08:46:11;15.30;;;6.03;;
36321;SDS011;23564;48.290;11.460;2022-08-27T08:48:42;9.93;;;6.40;;
36321;SDS011;23564;48.290;11.460;2022-08-27T08:51:15;9.68;;;6.55;;
36321;SDS011;23564;48.290;11.460;2022-08-27T08:53:53;11.30;;;6.82;;
36321;SDS011;23564;48.290;11.460;2022-08-27T08:56:30;10.27;;;6.97;;
36321;SDS011;23564;48.290;11.460;2022-08-27T09:01:47;13.00;;;6.70;;
36321;SDS011;23564;48.290;11.460;2022-08-27T09:04:14;12.45;;;6.28;;
36321;SDS011;23564;48.290;11.460;2022-08-27T09:06:44;11.73;;;5.88;;
36321;SDS011;23564;48.290;11.460;2022-08-27T09:12:21;23.40;;;9.80;;
36321;SDS011;23564;48.290;11.460;2022-08-27T09:14:52;9.40;;;5.72;;
36321;SDS011;23564;48.290;11.460;2022-08-27T09:17:19;9.40;;;5.97;;
36321;SDS011;23564;48.290;11.460;2022-08-27T09:19:44;9.80;;;6.50;;
36321;SDS011;23564;48.290;11.460;2022-08-27T09:25:19;12.60;;;6.28;;
36321;SDS011;23564;48.290;11.460;2022-08-27T09:27:50;8.80;;;5.95;;
36321;SDS011;23564;48.290;11.460;2022-08-27T09:30:24;12.02;;;7.05;;
36321;SDS011;23564;48.290;11.460;2022-08-27T09:32:57;26.70;;;10.63;;
36321;SDS011;23564;48.290;11.460;2022-08-27T09:35:25;10.55;;;6.88;;
36321;SDS011;23564;48.290;11.460;2022-08-27T09:38:00;15.65;;;6.72;;
36321;SDS011;23564;48.290;11.460;2022-08-27T09:40:30;17.02;;;8.93;;
36321;SDS011;23564;48.290;11.460;2022-08-27T09:43:06;17.15;;;5.65;;
36321;SDS011;23564;48.290;11.460;2022-08-27T09:45:33;28.33;;;6.25;;
36321;SDS011;23564;48.290;11.460;2022-08-27T09:48:06;11.35;;;5.53;;
36321;SDS011;23564;48.290;11.460;2022-08-27T09:50:41;7.57;;;5.10;;
36321;SDS011;23564;48.290;11.460;2022-08-27T09:55:59;10.02;;;6.22;;
36321;SDS011;23564;48.290;11.460;2022-08-27T09:58:29;7.90;;;5.35;;
36321;SDS011;23564;48.290;11.460;2022-08-27T10:03:40;10.10;;;4.30;;
36321;SDS011;23564;48.290;11.460;2022-08-27T10:06:06;7.25;;;4.57;;
36321;SDS011;23564;48.290;11.460;2022-08-27T10:08:37;6.03;;;4.80;;
36321;SDS011;23564;48.290;11.460;2022-08-27T10:11:13;10.20;;;4.15;;
36321;SDS011;23564;48.290;11.460;2022-08-27T10:21:49;9.35;;;3.90;;
36321;SDS011;23564;48.290;11.460;2022-08-27T10:24:43;5.75;;;3.80;;
36321;SDS011;23564;48.290;11.460;2022-08-27T10:30:08;6.90;;;4.40;;
36321;SDS011;23564;48.290;11.460;2022-08-27T10:33:22;4.57;;;3.60;;
36321;SDS011;23564;48.290;11.460;2022-08-27T10:35:48;8.00;;;4.40;;
36321;SDS011;23564;48.290;11.460;2022-08-27T10:40:58;7.82;;;4.35;;
36321;SDS011;23564;48.290;11.460;2022-08-27T10:52:04;5.10;;;3.65;;
36321;SDS011;23564;48.290;11.460;2022-08-27T10:55:00;8.38;;;4.45;;
36321;SDS011;23564;48.290;11.460;2022-08-27T11:00:20;5.78;;;4.32;;
36321;SDS011;23564;48.290;11.460;2022-08-27T11:07:52;8.82;;;5.60;;
36321;SDS011;23564;48.290;11.460;2022-08-27T11:10:25;9.82;;;4.88;;
36321;SDS011;23564;48.290;11.460;2022-08-27T11:15:56;7.13;;;5.40;;
36321;SDS011;23564;48.290;11.460;2022-08-27T11:23:48;8.63;;;5.05;;
36321;SDS011;23564;48.290;11.460;2022-08-27T11:26:20;5.90;;;4.85;;
36321;SDS011;23564;48.290;11.460;2022-08-27T11:28:53;7.20;;;4.20;;
36321;SDS011;23564;48.290;11.460;2022-08-27T11:31:23;9.90;;;4.43;;
36321;SDS011;23564;48.290;11.460;2022-08-27T11:42:40;6.68;;;4.10;;
36321;SDS011;23564;48.290;11.460;2022-08-27T11:45:21;7.35;;;4.55;;
36321;SDS011;23564;48.290;11.460;2022-08-27T11:48:00;6.88;;;4.07;;
36321;SDS011;23564;48.290;11.460;2022-08-27T11:50:28;11.85;;;4.25;;
36321;SDS011;23564;48.290;11.460;2022-08-27T11:53:02;8.15;;;3.95;;
36321;SDS011;23564;48.290;11.460;2022-08-27T11:58:07;4.47;;;3.30;;
36321;SDS011;23564;48.290;11.460;2022-08-27T12:00:42;6.22;;;3.35;;
36321;SDS011;23564;48.290;11.460;2022-08-27T12:03:21;4.72;;;2.83;;
36321;SDS011;23564;48.290;11.460;2022-08-27T12:13:36;5.82;;;3.22;;
36321;SDS011;23564;48.290;11.460;2022-08-27T12:22:06;3.60;;;2.70;;
36321;SDS011;23564;48.290;11.460;2022-08-27T12:25:21;7.35;;;3.22;;
36321;SDS011;23564;48.290;11.460;2022-08-27T12:27:57;4.82;;;2.80;;
36321;SDS011;23564;48.290;11.460;2022-08-27T12:30:37;5.70;;;2.45;;
36321;SDS011;23564;48.290;11.460;2022-08-27T12:35:56;6.13;;;2.78;;
36321;SDS011;23564;48.290;11.460;2022-08-27T12:40:59;3.72;;;2.60;;
36321;SDS011;23564;48.290;11.460;2022-08-27T12:43:32;4.07;;;2.88;;
36321;SDS011;23564;48.290;11.460;2022-08-27T12:46:00;6.28;;;2.90;;
36321;SDS011;23564;48.290;11.460;2022-08-27T12:48:29;4.35;;;2.85;;
36321;SDS011;23564;48.290;11.460;2022-08-27T12:50:58;3.60;;;2.55;;
36321;SDS011;23564;48.290;11.460;2022-08-27T12:53:33;5.35;;;2.63;;
36321;SDS011;23564;48.290;11.460;2022-08-27T13:01:54;7.85;;;3.08;;
36321;SDS011;23564;48.290;11.460;2022-08-27T13:04:45;4.75;;;3.15;;
36321;SDS011;23564;48.290;11.460;2022-08-27T13:07:12;6.82;;;2.80;;
36321;SDS011;23564;48.290;11.460;2022-08-27T13:09:49;6.35;;;3.08;;
36321;SDS011;23564;48.290;11.460;2022-08-27T13:12:15;4.53;;;2.85;;
36321;SDS011;23564;48.290;11.460;2022-08-27T13:14:41;5.22;;;3.00;;
36321;SDS011;23564;48.290;11.460;2022-08-27T13:17:12;6.63;;;3.03;;
36321;SDS011;23564;48.290;11.460;2022-08-27T13:19:47;4.88;;;2.80;;
36321;SDS011;23564;48.290;11.460;2022-08-27T13:22:24;6.70;;;2.92;;
36321;SDS011;23564;48.290;11.460;2022-08-27T13:24:53;4.97;;;2.80;;
36321;SDS011;23564;48.290;11.460;2022-08-27T13:27:38;4.50;;;2.47;;
36321;SDS011;23564;48.290;11.460;2022-08-27T13:30:04;5.70;;;2.78;;
36321;SDS011;23564;48.290;11.460;2022-08-27T13:32:32;6.13;;;2.50;;
36321;SDS011;23564;48.290;11.460;2022-08-27T13:35:00;7.53;;;2.67;;
36321;SDS011;23564;48.290;11.460;2022-08-27T13:37:27;5.05;;;2.72;;
36321;SDS011;23564;48.290;11.460;2022-08-27T13:39:58;6.70;;;2.67;;
36321;SDS011;23564;48.290;11.460;2022-08-27T13:42:24;5.07;;;2.88;;
36321;SDS011;23564;48.290;11.460;2022-08-27T13:44:51;5.30;;;2.72;;
36321;SDS011;23564;48.290;11.460;2022-08-27T13:47:22;6.50;;;3.15;;
36321;SDS011;23564;48.290;11.460;2022-08-27T13:49:50;6.15;;;2.88;;
36321;SDS011;23564;48.290;11.460;2022-08-27T13:52:29;6.13;;;2.80;;
36321;SDS011;23564;48.290;11.460;2022-08-27T13:55:08;5.90;;;3.15;;
36321;SDS011;23564;48.290;11.460;2022-08-27T14:00:13;4.88;;;2.88;;
36321;SDS011;23564;48.290;11.460;2022-08-27T14:02:40;4.90;;;2.55;;
36321;SDS011;23564;48.290;11.460;2022-08-27T14:05:14;6.40;;;3.22;;
36321;SDS011;23564;48.290;11.460;2022-08-27T14:07:56;7.03;;;3.33;;
36321;SDS011;23564;48.290;11.460;2022-08-27T14:10:25;6.38;;;3.22;;
36321;SDS011;23564;48.290;11.460;2022-08-27T14:13:02;6.03;;;3.00;;
36321;SDS011;23564;48.290;11.460;2022-08-27T14:15:37;3.92;;;3.15;;
36321;SDS011;23564;48.290;11.460;2022-08-27T14:18:06;9.02;;;3.05;;
36321;SDS011;23564;48.290;11.460;2022-08-27T14:20:46;5.68;;;3.22;;
36321;SDS011;23564;48.290;11.460;2022-08-27T14:23:11;4.35;;;3.03;;
36321;SDS011;23564;48.290;11.460;2022-08-27T14:25:38;6.60;;;3.20;;
36321;SDS011;23564;48.290;11.460;2022-08-27T14:28:05;6.28;;;3.13;;
36321;SDS011;23564;48.290;11.460;2022-08-27T14:30:31;5.30;;;3.47;;
36321;SDS011;23564;48.290;11.460;2022-08-27T14:33:00;5.32;;;3.78;;
36321;SDS011;23564;48.290;11.460;2022-08-27T14:35:27;7.05;;;3.70;;
36321;SDS011;23564;48.290;11.460;2022-08-27T14:37:55;7.57;;;4.30;;
36321;SDS011;23564;48.290;11.460;2022-08-27T14:40:22;10.23;;;4.57;;
36321;SDS011;23564;48.290;11.460;2022-08-27T14:42:47;6.10;;;4.47;;
36321;SDS011;23564;48.290;11.460;2022-08-27T14:45:13;8.55;;;4.32;;
36321;SDS011;23564;48.290;11.460;2022-08-27T14:47:39;8.38;;;3.78;;
36321;SDS011;23564;48.290;11.460;2022-08-27T14:50:06;9.55;;;4.65;;
36321;SDS011;23564;48.290;11.460;2022-08-27T14:52:34;11.93;;;5.53;;
36321;SDS011;23564;48.290;11.460;2022-08-27T14:55:00;7.97;;;4.60;;
36321;SDS011;23564;48.290;11.460;2022-08-27T14:57:26;8.63;;;5.20;;
36321;SDS011;23564;48.290;11.460;2022-08-27T14:59:52;11.13;;;6.28;;
36321;SDS011;23564;48.290;11.460;2022-08-27T15:02:17;12.20;;;5.05;;
36321;SDS011;23564;48.290;11.460;2022-08-27T15:04:45;12.93;;;7.53;;
36321;SDS011;23564;48.290;11.460;2022-08-27T15:07:11;12.75;;;5.30;;
36321;SDS011;23564;48.290;11.460;2022-08-27T15:09:36;8.35;;;5.10;;
36321;SDS011;23564;48.290;11.460;2022-08-27T15:12:02;9.93;;;6.22;;
36321;SDS011;23564;48.290;11.460;2022-08-27T15:14:33;10.07;;;6.75;;
36321;SDS011;23564;48.290;11.460;2022-08-27T15:17:01;9.02;;;6.05;;
36321;SDS011;23564;48.290;11.460;2022-08-27T15:19:29;9.45;;;6.32;;
36321;SDS011;23564;48.290;11.460;2022-08-27T15:21:56;8.60;;;5.47;;
36321;SDS011;23564;48.290;11.460;2022-08-27T15:24:50;10.50;;;5.70;;
36321;SDS011;23564;48.290;11.460;2022-08-27T15:27:19;14.18;;;5.57;;
36321;SDS011;23564;48.290;11.460;2022-08-27T15:29:45;7.07;;;5.47;;
36321;SDS011;23564;48.290;11.460;2022-08-27T15:32:33;6.70;;;4.82;;
36321;SDS011;23564;48.290;11.460;2022-08-27T15:34:59;6.78;;;4.53;;
36321;SDS011;23564;48.290;11.460;2022-08-27T15:37:29;7.85;;;4.85;;
36321;SDS011;23564;48.290;11.460;2022-08-27T15:39:55;6.30;;;3.85;;
36321;SDS011;23564;48.290;11.460;2022-08-27T15:42:20;11.05;;;5.35;;
36321;SDS011;23564;48.290;11.460;2022-08-27T15:44:47;7.38;;;4.10;;
36321;SDS011;23564;48.290;11.460;2022-08-27T15:47:15;7.93;;;3.90;;
36321;SDS011;23564;48.290;11.460;2022-08-27T15:49:41;6.93;;;3.85;;
36321;SDS011;23564;48.290;11.460;2022-08-27T15:52:07;7.45;;;3.33;;
36321;SDS011;23564;48.290;11.460;2022-08-27T15:54:38;5.93;;;3.95;;
36321;SDS011;23564;48.290;11.460;2022-08-27T15:57:05;8.45;;;3.15;;
36321;SDS011;23564;48.290;11.460;2022-08-27T15:59:31;6.25;;;3.30;;
36321;SDS011;23564;48.290;11.460;2022-08-27T16:01:57;9.05;;;3.40;;
36321;SDS011;23564;48.290;11.460;2022-08-27T16:04:23;6.82;;;3.28;;
36321;SDS011;23564;48.290;11.460;2022-08-27T16:06:49;6.07;;;3.42;;
36321;SDS011;23564;48.290;11.460;2022-08-27T16:09:15;4.60;;;3.35;;